sensor_id;sensor_type;location;lat;lon;timestamp;temperature;humidity
15959;DHT22;8078;47.822;9.402;2023-06-10T00:00:40;14.90;1.00
15959;DHT22;8078;47.822;9.402;2023-06-10T00:03:09;14.90;1.00
15959;DHT22;8078;47.822;9.402;2023-06-10T00:05:35;14.90;1.00
15959;DHT22;8078;47.822;9.402;2023-06-10T00:08:04;14.80;1.00
15959;DHT22;8078;47.822;9.402;2023-06-10T00:10:33;14.80;1.00
15959;DHT22;8078;47.822;9.402;2023-06-10T00:13:00;14.80;1.00
15959;DHT22;8078;47.822;9.402;2023-06-10T00:15:26;14.80;1.00
15959;DHT22;8078;47.822;9.402;2023-06-10T00:17:52;14.80;1.00
15959;DHT22;8078;47.822;9.402;2023-06-10T00:20:18;14.80;1.00
15959;DHT22;8078;47.822;9.402;2023-06-10T00:22:44;14.80;1.00
15959;DHT22;8078;47.822;9.402;2023-06-10T00:25:11;14.80;1.00
15959;DHT22;8078;47.822;9.402;2023-06-10T00:27:36;14.70;1.00
15959;DHT22;8078;47.822;9.402;2023-06-10T00:30:03;14.70;1.00
15959;DHT22;8078;47.822;9.402;2023-06-10T00:32:32;14.70;1.00
15959;DHT22;8078;47.822;9.402;2023-06-10T00:34:58;14.70;1.00
15959;DHT22;8078;47.822;9.402;2023-06-10T00:37:23;14.70;1.00
15959;DHT22;8078;47.822;9.402;2023-06-10T00:39:49;14.60;1.00
15959;DHT22;8078;47.822;9.402;2023-06-10T00:42:14;14.60;1.00
15959;DHT22;8078;47.822;9.402;2023-06-10T00:44:40;14.60;1.00
15959;DHT22;8078;47.822;9.402;2023-06-10T00:47:06;14.50;1.00
15959;DHT22;8078;47.822;9.402;2023-06-10T00:49:33;14.50;1.00
15959;DHT22;8078;47.822;9.402;2023-06-10T00:51:59;14.40;1.00
15959;DHT22;8078;47.822;9.402;2023-06-10T00:54:25;14.40;1.00
15959;DHT22;8078;47.822;9.402;2023-06-10T00:56:51;14.40;1.00
15959;DHT22;8078;47.822;9.402;2023-06-10T00:59:18;14.40;1.00
15959;DHT22;8078;47.822;9.402;2023-06-10T01:01:45;14.40;1.00
15959;DHT22;8078;47.822;9.402;2023-06-10T01:04:12;14.30;1.00
15959;DHT22;8078;47.822;9.402;2023-06-10T01:06:42;14.30;1.00
15959;DHT22;8078;47.822;9.402;2023-06-10T01:09:42;14.30;1.00
15959;DHT22;8078;47.822;9.402;2023-06-10T01:12:18;14.30;1.00
15959;DHT22;8078;47.822;9.402;2023-06-10T01:14:46;14.30;1.00
15959;DHT22;8078;47.822;9.402;2023-06-10T01:17:12;14.20;1.00
15959;DHT22;8078;47.822;9.402;2023-06-10T01:19:41;14.20;1.00
15959;DHT22;8078;47.822;9.402;2023-06-10T01:22:09;14.20;1.00
15959;DHT22;8078;47.822;9.402;2023-06-10T01:24:36;14.10;1.00
15959;DHT22;8078;47.822;9.402;2023-06-10T01:27:05;14.10;1.00
15959;DHT22;8078;47.822;9.402;2023-06-10T01:29:39;14.00;44.60
15959;DHT22;8078;47.822;9.402;2023-06-10T01:32:17;14.10;48.90
15959;DHT22;8078;47.822;9.402;2023-06-10T01:34:44;14.10;48.70
15959;DHT22;8078;47.822;9.402;2023-06-10T01:37:13;14.00;60.60
15959;DHT22;8078;47.822;9.402;2023-06-10T01:39:41;13.90;69.00
15959;DHT22;8078;47.822;9.402;2023-06-10T01:42:08;13.80;93.90
15959;DHT22;8078;47.822;9.402;2023-06-10T01:44:33;13.70;99.90
15959;DHT22;8078;47.822;9.402;2023-06-10T01:46:59;13.70;99.90
15959;DHT22;8078;47.822;9.402;2023-06-10T01:49:25;13.60;99.90
15959;DHT22;8078;47.822;9.402;2023-06-10T01:51:51;13.50;99.90
15959;DHT22;8078;47.822;9.402;2023-06-10T01:54:17;13.60;99.90
15959;DHT22;8078;47.822;9.402;2023-06-10T01:56:42;13.60;99.90
15959;DHT22;8078;47.822;9.402;2023-06-10T01:59:08;13.70;99.90
15959;DHT22;8078;47.822;9.402;2023-06-10T02:01:33;13.70;99.90
15959;DHT22;8078;47.822;9.402;2023-06-10T02:03:59;13.70;99.90
15959;DHT22;8078;47.822;9.402;2023-06-10T02:06:24;13.60;99.90
15959;DHT22;8078;47.822;9.402;2023-06-10T02:08:50;13.50;99.90
15959;DHT22;8078;47.822;9.402;2023-06-10T02:11:16;13.60;99.90
15959;DHT22;8078;47.822;9.402;2023-06-10T02:13:41;13.60;99.90
15959;DHT22;8078;47.822;9.402;2023-06-10T02:16:07;13.50;99.90
15959;DHT22;8078;47.822;9.402;2023-06-10T02:18:33;13.50;99.90
15959;DHT22;8078;47.822;9.402;2023-06-10T02:20:59;13.50;99.90
15959;DHT22;8078;47.822;9.402;2023-06-10T02:23:24;13.40;99.90
15959;DHT22;8078;47.822;9.402;2023-06-10T02:25:50;13.40;1.00
15959;DHT22;8078;47.822;9.402;2023-06-10T02:28:16;13.40;1.00
15959;DHT22;8078;47.822;9.402;2023-06-10T02:30:42;13.50;99.90
15959;DHT22;8078;47.822;9.402;2023-06-10T02:33:08;13.40;99.90
15959;DHT22;8078;47.822;9.402;2023-06-10T02:35:39;13.30;1.00
15959;DHT22;8078;47.822;9.402;2023-06-10T02:38:05;13.20;1.00
15959;DHT22;8078;47.822;9.402;2023-06-10T02:40:31;13.20;1.00
15959;DHT22;8078;47.822;9.402;2023-06-10T02:42:57;13.20;1.00
15959;DHT22;8078;47.822;9.402;2023-06-10T02:45:23;13.10;1.00
15959;DHT22;8078;47.822;9.402;2023-06-10T02:47:49;13.10;1.00
15959;DHT22;8078;47.822;9.402;2023-06-10T02:50:15;13.10;1.00
15959;DHT22;8078;47.822;9.402;2023-06-10T02:52:40;13.10;1.00
15959;DHT22;8078;47.822;9.402;2023-06-10T02:55:06;13.10;1.00
15959;DHT22;8078;47.822;9.402;2023-06-10T02:57:32;13.10;1.00
15959;DHT22;8078;47.822;9.402;2023-06-10T02:59:58;13.00;1.00
15959;DHT22;8078;47.822;9.402;2023-06-10T03:02:24;13.00;1.00
15959;DHT22;8078;47.822;9.402;2023-06-10T03:04:56;13.00;1.00
15959;DHT22;8078;47.822;9.402;2023-06-10T03:07:21;12.90;1.00
15959;DHT22;8078;47.822;9.402;2023-06-10T03:09:48;12.90;1.00
15959;DHT22;8078;47.822;9.402;2023-06-10T03:12:14;12.80;1.00
15959;DHT22;8078;47.822;9.402;2023-06-10T03:14:41;12.80;1.00
15959;DHT22;8078;47.822;9.402;2023-06-10T03:17:07;12.80;1.00
15959;DHT22;8078;47.822;9.402;2023-06-10T03:19:34;12.80;1.00
15959;DHT22;8078;47.822;9.402;2023-06-10T03:22:14;12.70;36.40
15959;DHT22;8078;47.822;9.402;2023-06-10T03:24:40;12.70;99.90
15959;DHT22;8078;47.822;9.402;2023-06-10T03:27:07;12.70;99.90
15959;DHT22;8078;47.822;9.402;2023-06-10T03:29:33;12.60;99.90
15959;DHT22;8078;47.822;9.402;2023-06-10T03:31:59;12.70;99.90
15959;DHT22;8078;47.822;9.402;2023-06-10T03:34:25;12.60;99.90
15959;DHT22;8078;47.822;9.402;2023-06-10T03:36:50;12.60;99.90
15959;DHT22;8078;47.822;9.402;2023-06-10T03:39:16;12.70;99.90
15959;DHT22;8078;47.822;9.402;2023-06-10T03:41:41;12.60;99.90
15959;DHT22;8078;47.822;9.402;2023-06-10T03:44:07;12.70;99.90
15959;DHT22;8078;47.822;9.402;2023-06-10T03:46:32;12.70;99.90
15959;DHT22;8078;47.822;9.402;2023-06-10T03:48:58;12.60;99.90
15959;DHT22;8078;47.822;9.402;2023-06-10T03:51:26;12.70;99.90
15959;DHT22;8078;47.822;9.402;2023-06-10T03:53:52;12.70;99.90
15959;DHT22;8078;47.822;9.402;2023-06-10T03:56:17;12.80;99.90
15959;DHT22;8078;47.822;9.402;2023-06-10T03:58:43;12.90;99.90
15959;DHT22;8078;47.822;9.402;2023-06-10T04:01:08;13.00;99.90
15959;DHT22;8078;47.822;9.402;2023-06-10T04:03:34;13.00;99.90
15959;DHT22;8078;47.822;9.402;2023-06-10T04:05:59;13.10;99.90
15959;DHT22;8078;47.822;9.402;2023-06-10T04:08:25;13.10;99.90
15959;DHT22;8078;47.822;9.402;2023-06-10T04:10:51;13.30;1.00
15959;DHT22;8078;47.822;9.402;2023-06-10T04:13:17;13.30;1.00
15959;DHT22;8078;47.822;9.402;2023-06-10T04:15:42;13.30;8.60
15959;DHT22;8078;47.822;9.402;2023-06-10T04:18:08;13.40;1.00
15959;DHT22;8078;47.822;9.402;2023-06-10T04:20:33;13.40;1.00
15959;DHT22;8078;47.822;9.402;2023-06-10T04:22:59;13.40;1.00
15959;DHT22;8078;47.822;9.402;2023-06-10T04:25:25;13.50;1.00
15959;DHT22;8078;47.822;9.402;2023-06-10T04:27:51;13.50;1.00
15959;DHT22;8078;47.822;9.402;2023-06-10T04:30:17;13.60;1.00
15959;DHT22;8078;47.822;9.402;2023-06-10T04:32:43;13.70;1.00
15959;DHT22;8078;47.822;9.402;2023-06-10T04:35:12;13.70;1.00
15959;DHT22;8078;47.822;9.402;2023-06-10T04:37:38;13.90;1.00
15959;DHT22;8078;47.822;9.402;2023-06-10T04:40:04;14.00;1.00
15959;DHT22;8078;47.822;9.402;2023-06-10T04:42:30;14.10;1.00
15959;DHT22;8078;47.822;9.402;2023-06-10T04:44:56;14.20;99.90
15959;DHT22;8078;47.822;9.402;2023-06-10T04:47:22;14.30;99.90
15959;DHT22;8078;47.822;9.402;2023-06-10T04:49:48;14.40;99.90
15959;DHT22;8078;47.822;9.402;2023-06-10T04:52:14;14.40;99.90
15959;DHT22;8078;47.822;9.402;2023-06-10T04:54:40;14.40;99.90
15959;DHT22;8078;47.822;9.402;2023-06-10T04:57:06;14.40;99.90
15959;DHT22;8078;47.822;9.402;2023-06-10T04:59:33;14.40;99.90
15959;DHT22;8078;47.822;9.402;2023-06-10T05:02:03;14.50;99.90
15959;DHT22;8078;47.822;9.402;2023-06-10T05:04:28;14.50;99.90
15959;DHT22;8078;47.822;9.402;2023-06-10T05:06:55;14.60;99.90
15959;DHT22;8078;47.822;9.402;2023-06-10T05:09:20;14.80;99.90
15959;DHT22;8078;47.822;9.402;2023-06-10T05:11:46;14.80;99.90
15959;DHT22;8078;47.822;9.402;2023-06-10T05:14:12;14.80;99.90
15959;DHT22;8078;47.822;9.402;2023-06-10T05:16:38;15.00;99.90
15959;DHT22;8078;47.822;9.402;2023-06-10T05:19:04;14.90;99.90
15959;DHT22;8078;47.822;9.402;2023-06-10T05:21:29;14.90;99.90
15959;DHT22;8078;47.822;9.402;2023-06-10T05:23:55;15.00;99.90
15959;DHT22;8078;47.822;9.402;2023-06-10T05:26:21;15.00;96.00
15959;DHT22;8078;47.822;9.402;2023-06-10T05:28:47;15.20;42.20
15959;DHT22;8078;47.822;9.402;2023-06-10T05:31:12;15.30;99.90
15959;DHT22;8078;47.822;9.402;2023-06-10T05:33:39;15.30;99.90
15959;DHT22;8078;47.822;9.402;2023-06-10T05:36:05;15.50;54.60
15959;DHT22;8078;47.822;9.402;2023-06-10T05:38:31;15.60;1.00
15959;DHT22;8078;47.822;9.402;2023-06-10T05:40:56;15.60;1.00
15959;DHT22;8078;47.822;9.402;2023-06-10T05:43:22;15.80;15.80
15959;DHT22;8078;47.822;9.402;2023-06-10T05:45:48;15.90;4.60
15959;DHT22;8078;47.822;9.402;2023-06-10T05:48:13;16.00;1.00
15959;DHT22;8078;47.822;9.402;2023-06-10T05:50:39;16.20;1.00
15959;DHT22;8078;47.822;9.402;2023-06-10T05:53:08;16.40;1.00
15959;DHT22;8078;47.822;9.402;2023-06-10T05:55:41;16.40;1.00
15959;DHT22;8078;47.822;9.402;2023-06-10T05:58:07;16.70;1.00
15959;DHT22;8078;47.822;9.402;2023-06-10T06:00:32;16.60;1.00
15959;DHT22;8078;47.822;9.402;2023-06-10T06:02:58;16.70;1.00
15959;DHT22;8078;47.822;9.402;2023-06-10T06:05:24;16.90;1.00
15959;DHT22;8078;47.822;9.402;2023-06-10T06:07:50;16.80;1.00
15959;DHT22;8078;47.822;9.402;2023-06-10T06:10:17;16.90;1.00
15959;DHT22;8078;47.822;9.402;2023-06-10T06:12:43;16.90;1.00
15959;DHT22;8078;47.822;9.402;2023-06-10T06:15:09;17.10;1.00
15959;DHT22;8078;47.822;9.402;2023-06-10T06:17:35;17.30;1.00
15959;DHT22;8078;47.822;9.402;2023-06-10T06:20:01;17.40;1.00
15959;DHT22;8078;47.822;9.402;2023-06-10T06:22:27;17.50;1.00
15959;DHT22;8078;47.822;9.402;2023-06-10T06:24:52;17.60;1.00
15959;DHT22;8078;47.822;9.402;2023-06-10T06:27:18;17.60;1.00
15959;DHT22;8078;47.822;9.402;2023-06-10T06:29:43;17.60;1.00
15959;DHT22;8078;47.822;9.402;2023-06-10T06:32:09;17.70;1.00
15959;DHT22;8078;47.822;9.402;2023-06-10T06:34:34;17.70;1.00
15959;DHT22;8078;47.822;9.402;2023-06-10T06:37:00;17.80;1.00
15959;DHT22;8078;47.822;9.402;2023-06-10T06:39:25;17.80;1.00
15959;DHT22;8078;47.822;9.402;2023-06-10T06:41:51;17.90;1.00
15959;DHT22;8078;47.822;9.402;2023-06-10T06:44:16;18.10;1.00
15959;DHT22;8078;47.822;9.402;2023-06-10T06:46:42;18.00;1.00
15959;DHT22;8078;47.822;9.402;2023-06-10T06:49:07;18.10;17.40
15959;DHT22;8078;47.822;9.402;2023-06-10T06:51:33;18.10;64.50
15959;DHT22;8078;47.822;9.402;2023-06-10T06:53:59;18.20;1.00
15959;DHT22;8078;47.822;9.402;2023-06-10T06:56:25;18.40;1.00
15959;DHT22;8078;47.822;9.402;2023-06-10T06:58:52;18.60;1.00
15959;DHT22;8078;47.822;9.402;2023-06-10T07:01:18;18.60;1.00
15959;DHT22;8078;47.822;9.402;2023-06-10T07:03:43;18.50;1.00
15959;DHT22;8078;47.822;9.402;2023-06-10T07:06:09;18.70;1.00
15959;DHT22;8078;47.822;9.402;2023-06-10T07:08:34;19.00;1.00
15959;DHT22;8078;47.822;9.402;2023-06-10T07:11:00;19.30;1.00
15959;DHT22;8078;47.822;9.402;2023-06-10T07:13:25;19.40;99.90
15959;DHT22;8078;47.822;9.402;2023-06-10T07:15:51;19.50;49.10
15959;DHT22;8078;47.822;9.402;2023-06-10T07:18:16;19.80;1.00
15959;DHT22;8078;47.822;9.402;2023-06-10T07:20:45;19.90;99.90
15959;DHT22;8078;47.822;9.402;2023-06-10T07:23:10;19.90;99.90
15959;DHT22;8078;47.822;9.402;2023-06-10T07:25:36;19.80;99.90
15959;DHT22;8078;47.822;9.402;2023-06-10T07:28:02;19.60;99.90
15959;DHT22;8078;47.822;9.402;2023-06-10T07:30:28;19.50;1.00
15959;DHT22;8078;47.822;9.402;2023-06-10T07:32:53;19.80;5.30
15959;DHT22;8078;47.822;9.402;2023-06-10T07:35:19;20.10;99.90
15959;DHT22;8078;47.822;9.402;2023-06-10T07:37:44;20.30;99.90
15959;DHT22;8078;47.822;9.402;2023-06-10T07:40:11;20.40;99.90
15959;DHT22;8078;47.822;9.402;2023-06-10T07:42:36;20.40;92.60
15959;DHT22;8078;47.822;9.402;2023-06-10T07:45:07;20.40;99.90
15959;DHT22;8078;47.822;9.402;2023-06-10T07:47:33;20.40;99.90
15959;DHT22;8078;47.822;9.402;2023-06-10T07:49:59;20.60;99.90
15959;DHT22;8078;47.822;9.402;2023-06-10T07:52:25;20.70;1.00
15959;DHT22;8078;47.822;9.402;2023-06-10T07:54:51;20.80;99.90
15959;DHT22;8078;47.822;9.402;2023-06-10T07:57:17;21.10;99.90
15959;DHT22;8078;47.822;9.402;2023-06-10T07:59:43;21.30;1.00
15959;DHT22;8078;47.822;9.402;2023-06-10T08:02:09;21.10;1.00
15959;DHT22;8078;47.822;9.402;2023-06-10T08:04:35;21.20;1.00
15959;DHT22;8078;47.822;9.402;2023-06-10T08:07:01;21.30;1.00
15959;DHT22;8078;47.822;9.402;2023-06-10T08:11:54;21.50;1.00
15959;DHT22;8078;47.822;9.402;2023-06-10T08:14:21;21.30;1.00
15959;DHT22;8078;47.822;9.402;2023-06-10T08:16:46;21.30;1.00
15959;DHT22;8078;47.822;9.402;2023-06-10T08:19:12;21.30;1.00
15959;DHT22;8078;47.822;9.402;2023-06-10T08:21:37;21.50;1.00
15959;DHT22;8078;47.822;9.402;2023-06-10T08:24:09;21.90;1.00
15959;DHT22;8078;47.822;9.402;2023-06-10T08:26:34;22.10;99.90
15959;DHT22;8078;47.822;9.402;2023-06-10T08:29:00;22.20;1.00
15959;DHT22;8078;47.822;9.402;2023-06-10T08:31:25;22.20;1.00
15959;DHT22;8078;47.822;9.402;2023-06-10T08:33:51;22.50;1.00
15959;DHT22;8078;47.822;9.402;2023-06-10T08:36:17;22.80;99.90
15959;DHT22;8078;47.822;9.402;2023-06-10T08:38:42;23.20;99.90
15959;DHT22;8078;47.822;9.402;2023-06-10T08:41:09;23.20;99.90
15959;DHT22;8078;47.822;9.402;2023-06-10T08:43:59;23.20;99.90
15959;DHT22;8078;47.822;9.402;2023-06-10T08:46:29;23.30;99.90
15959;DHT22;8078;47.822;9.402;2023-06-10T08:49:00;22.90;99.90
15959;DHT22;8078;47.822;9.402;2023-06-10T08:51:27;22.80;99.90
15959;DHT22;8078;47.822;9.402;2023-06-10T08:54:02;22.80;99.90
15959;DHT22;8078;47.822;9.402;2023-06-10T08:56:28;22.90;99.90
15959;DHT22;8078;47.822;9.402;2023-06-10T08:58:56;23.10;99.90
15959;DHT22;8078;47.822;9.402;2023-06-10T09:01:23;23.10;99.90
15959;DHT22;8078;47.822;9.402;2023-06-10T09:03:49;23.10;99.90
15959;DHT22;8078;47.822;9.402;2023-06-10T09:06:15;23.40;99.90
15959;DHT22;8078;47.822;9.402;2023-06-10T09:08:41;23.70;99.90
15959;DHT22;8078;47.822;9.402;2023-06-10T09:11:07;23.70;99.90
15959;DHT22;8078;47.822;9.402;2023-06-10T09:13:33;23.70;99.90
15959;DHT22;8078;47.822;9.402;2023-06-10T09:15:58;24.20;99.90
15959;DHT22;8078;47.822;9.402;2023-06-10T09:18:27;24.50;99.90
15959;DHT22;8078;47.822;9.402;2023-06-10T09:20:53;24.60;99.90
15959;DHT22;8078;47.822;9.402;2023-06-10T09:23:18;24.30;99.90
15959;DHT22;8078;47.822;9.402;2023-06-10T09:25:44;24.30;99.90
15959;DHT22;8078;47.822;9.402;2023-06-10T09:28:14;24.20;99.90
15959;DHT22;8078;47.822;9.402;2023-06-10T09:30:40;24.40;99.90
15959;DHT22;8078;47.822;9.402;2023-06-10T09:33:14;24.50;99.90
15959;DHT22;8078;47.822;9.402;2023-06-10T09:35:47;25.20;99.90
15959;DHT22;8078;47.822;9.402;2023-06-10T09:38:14;24.90;99.90
15959;DHT22;8078;47.822;9.402;2023-06-10T09:40:50;25.00;99.90
15959;DHT22;8078;47.822;9.402;2023-06-10T09:43:16;25.00;99.90
15959;DHT22;8078;47.822;9.402;2023-06-10T09:45:42;25.20;99.90
15959;DHT22;8078;47.822;9.402;2023-06-10T09:48:09;25.30;99.90
15959;DHT22;8078;47.822;9.402;2023-06-10T09:50:36;25.20;99.90
15959;DHT22;8078;47.822;9.402;2023-06-10T09:53:06;25.40;99.90
15959;DHT22;8078;47.822;9.402;2023-06-10T09:55:33;25.90;99.90
15959;DHT22;8078;47.822;9.402;2023-06-10T09:57:59;26.10;99.90
15959;DHT22;8078;47.822;9.402;2023-06-10T10:00:25;25.40;99.90
15959;DHT22;8078;47.822;9.402;2023-06-10T10:02:53;25.80;99.90
15959;DHT22;8078;47.822;9.402;2023-06-10T10:05:20;25.80;99.90
15959;DHT22;8078;47.822;9.402;2023-06-10T10:07:47;26.30;99.90
15959;DHT22;8078;47.822;9.402;2023-06-10T10:10:14;26.20;99.90
15959;DHT22;8078;47.822;9.402;2023-06-10T10:12:41;26.50;99.90
15959;DHT22;8078;47.822;9.402;2023-06-10T10:15:08;27.00;99.90
15959;DHT22;8078;47.822;9.402;2023-06-10T10:17:40;27.10;99.90
15959;DHT22;8078;47.822;9.402;2023-06-10T10:20:07;27.60;99.90
15959;DHT22;8078;47.822;9.402;2023-06-10T10:22:41;27.20;99.90
15959;DHT22;8078;47.822;9.402;2023-06-10T10:25:11;26.60;99.90
15959;DHT22;8078;47.822;9.402;2023-06-10T10:28:06;26.70;99.90
15959;DHT22;8078;47.822;9.402;2023-06-10T10:30:39;27.10;99.90
15959;DHT22;8078;47.822;9.402;2023-06-10T10:33:31;27.20;99.90
15959;DHT22;8078;47.822;9.402;2023-06-10T10:35:58;26.20;99.90
15959;DHT22;8078;47.822;9.402;2023-06-10T10:38:24;25.80;99.90
15959;DHT22;8078;47.822;9.402;2023-06-10T10:40:50;25.20;99.90
15959;DHT22;8078;47.822;9.402;2023-06-10T10:43:17;25.40;99.90
15959;DHT22;8078;47.822;9.402;2023-06-10T10:45:46;25.60;99.90
15959;DHT22;8078;47.822;9.402;2023-06-10T10:48:12;26.40;99.90
15959;DHT22;8078;47.822;9.402;2023-06-10T10:50:39;25.70;99.90
15959;DHT22;8078;47.822;9.402;2023-06-10T10:53:06;25.80;99.90
15959;DHT22;8078;47.822;9.402;2023-06-10T10:55:32;25.40;99.90
15959;DHT22;8078;47.822;9.402;2023-06-10T10:57:58;26.40;99.90
15959;DHT22;8078;47.822;9.402;2023-06-10T11:00:35;26.90;99.90
15959;DHT22;8078;47.822;9.402;2023-06-10T11:03:06;26.50;99.90
15959;DHT22;8078;47.822;9.402;2023-06-10T11:05:40;26.30;99.90
15959;DHT22;8078;47.822;9.402;2023-06-10T11:08:08;27.20;99.90
15959;DHT22;8078;47.822;9.402;2023-06-10T11:13:05;28.20;99.90
15959;DHT22;8078;47.822;9.402;2023-06-10T11:15:31;28.10;99.90
15959;DHT22;8078;47.822;9.402;2023-06-10T11:18:13;27.40;99.90
15959;DHT22;8078;47.822;9.402;2023-06-10T11:26:29;28.10;99.90
15959;DHT22;8078;47.822;9.402;2023-06-10T11:31:25;29.30;99.90
15959;DHT22;8078;47.822;9.402;2023-06-10T11:34:04;30.00;99.90
15959;DHT22;8078;47.822;9.402;2023-06-10T11:36:31;29.60;99.90
15959;DHT22;8078;47.822;9.402;2023-06-10T11:38:59;28.10;99.90
15959;DHT22;8078;47.822;9.402;2023-06-10T11:41:27;26.90;99.90
15959;DHT22;8078;47.822;9.402;2023-06-10T11:43:54;26.40;99.90
15959;DHT22;8078;47.822;9.402;2023-06-10T11:46:23;26.80;99.90
15959;DHT22;8078;47.822;9.402;2023-06-10T11:48:54;27.30;99.90
15959;DHT22;8078;47.822;9.402;2023-06-10T11:51:20;28.10;99.90
15959;DHT22;8078;47.822;9.402;2023-06-10T11:53:49;28.30;99.90
15959;DHT22;8078;47.822;9.402;2023-06-10T11:56:26;28.10;99.90
15959;DHT22;8078;47.822;9.402;2023-06-10T11:59:00;28.10;99.90
15959;DHT22;8078;47.822;9.402;2023-06-10T12:01:30;28.80;99.90
15959;DHT22;8078;47.822;9.402;2023-06-10T12:04:04;29.20;99.90
15959;DHT22;8078;47.822;9.402;2023-06-10T12:06:53;29.60;99.90
15959;DHT22;8078;47.822;9.402;2023-06-10T12:09:27;29.20;99.90
15959;DHT22;8078;47.822;9.402;2023-06-10T12:12:03;29.10;99.90
15959;DHT22;8078;47.822;9.402;2023-06-10T12:14:59;29.10;99.90
15959;DHT22;8078;47.822;9.402;2023-06-10T12:20:03;28.70;99.90
15959;DHT22;8078;47.822;9.402;2023-06-10T12:22:41;28.30;99.90
15959;DHT22;8078;47.822;9.402;2023-06-10T12:25:08;27.70;99.90
15959;DHT22;8078;47.822;9.402;2023-06-10T12:27:35;27.30;99.90
15959;DHT22;8078;47.822;9.402;2023-06-10T12:30:03;27.00;99.90
15959;DHT22;8078;47.822;9.402;2023-06-10T12:32:40;26.90;99.90
15959;DHT22;8078;47.822;9.402;2023-06-10T12:35:07;27.20;99.90
15959;DHT22;8078;47.822;9.402;2023-06-10T12:37:33;27.60;99.90
15959;DHT22;8078;47.822;9.402;2023-06-10T12:40:04;27.40;99.90
15959;DHT22;8078;47.822;9.402;2023-06-10T12:42:32;27.70;99.90
15959;DHT22;8078;47.822;9.402;2023-06-10T12:44:59;28.40;99.90
15959;DHT22;8078;47.822;9.402;2023-06-10T12:47:35;28.00;99.90
15959;DHT22;8078;47.822;9.402;2023-06-10T12:50:02;27.30;99.90
15959;DHT22;8078;47.822;9.402;2023-06-10T12:52:28;26.70;99.90
15959;DHT22;8078;47.822;9.402;2023-06-10T12:54:54;26.60;99.90
15959;DHT22;8078;47.822;9.402;2023-06-10T12:57:21;27.00;99.90
15959;DHT22;8078;47.822;9.402;2023-06-10T12:59:47;27.80;99.90
15959;DHT22;8078;47.822;9.402;2023-06-10T13:02:21;28.20;99.90
15959;DHT22;8078;47.822;9.402;2023-06-10T13:04:49;28.40;99.90
15959;DHT22;8078;47.822;9.402;2023-06-10T13:07:15;27.40;99.90
15959;DHT22;8078;47.822;9.402;2023-06-10T13:09:42;26.50;99.90
15959;DHT22;8078;47.822;9.402;2023-06-10T13:12:08;26.20;99.90
15959;DHT22;8078;47.822;9.402;2023-06-10T13:14:33;26.40;99.90
15959;DHT22;8078;47.822;9.402;2023-06-10T13:16:59;27.30;99.90
15959;DHT22;8078;47.822;9.402;2023-06-10T13:19:25;28.00;99.90
15959;DHT22;8078;47.822;9.402;2023-06-10T13:21:51;28.50;99.90
15959;DHT22;8078;47.822;9.402;2023-06-10T13:24:17;27.60;99.90
15959;DHT22;8078;47.822;9.402;2023-06-10T13:26:43;26.50;99.90
15959;DHT22;8078;47.822;9.402;2023-06-10T13:29:09;25.60;99.90
15959;DHT22;8078;47.822;9.402;2023-06-10T13:31:39;25.80;99.90
15959;DHT22;8078;47.822;9.402;2023-06-10T13:34:05;25.80;99.90
15959;DHT22;8078;47.822;9.402;2023-06-10T13:36:31;26.00;99.90
15959;DHT22;8078;47.822;9.402;2023-06-10T13:38:57;26.40;99.90
15959;DHT22;8078;47.822;9.402;2023-06-10T13:41:22;26.80;99.90
15959;DHT22;8078;47.822;9.402;2023-06-10T13:43:48;27.00;99.90
15959;DHT22;8078;47.822;9.402;2023-06-10T13:46:14;27.60;99.90
15959;DHT22;8078;47.822;9.402;2023-06-10T13:51:05;28.60;99.90
15959;DHT22;8078;47.822;9.402;2023-06-10T13:53:32;29.70;99.90
15959;DHT22;8078;47.822;9.402;2023-06-10T13:55:57;30.00;99.90
15959;DHT22;8078;47.822;9.402;2023-06-10T13:58:23;29.50;99.90
15959;DHT22;8078;47.822;9.402;2023-06-10T14:00:48;28.10;99.90
15959;DHT22;8078;47.822;9.402;2023-06-10T14:03:14;27.80;99.90
15959;DHT22;8078;47.822;9.402;2023-06-10T14:05:40;28.30;99.90
15959;DHT22;8078;47.822;9.402;2023-06-10T14:08:05;29.00;99.90
15959;DHT22;8078;47.822;9.402;2023-06-10T14:10:31;29.50;99.90
15959;DHT22;8078;47.822;9.402;2023-06-10T14:12:56;30.40;99.90
15959;DHT22;8078;47.822;9.402;2023-06-10T14:15:22;30.90;99.90
15959;DHT22;8078;47.822;9.402;2023-06-10T14:17:48;31.70;99.90
15959;DHT22;8078;47.822;9.402;2023-06-10T14:20:13;31.70;99.90
15959;DHT22;8078;47.822;9.402;2023-06-10T14:22:39;31.30;99.90
15959;DHT22;8078;47.822;9.402;2023-06-10T14:25:05;30.90;99.90
15959;DHT22;8078;47.822;9.402;2023-06-10T14:27:31;29.80;99.90
15959;DHT22;8078;47.822;9.402;2023-06-10T14:29:57;29.10;99.90
15959;DHT22;8078;47.822;9.402;2023-06-10T14:32:22;29.30;99.90
15959;DHT22;8078;47.822;9.402;2023-06-10T14:34:48;29.40;99.90
15959;DHT22;8078;47.822;9.402;2023-06-10T14:37:13;29.80;99.90
15959;DHT22;8078;47.822;9.402;2023-06-10T14:39:39;30.10;99.90
15959;DHT22;8078;47.822;9.402;2023-06-10T14:42:05;30.30;99.90
15959;DHT22;8078;47.822;9.402;2023-06-10T14:44:31;30.80;99.90
15959;DHT22;8078;47.822;9.402;2023-06-10T14:46:56;30.90;99.90
15959;DHT22;8078;47.822;9.402;2023-06-10T14:49:22;29.40;99.90
15959;DHT22;8078;47.822;9.402;2023-06-10T14:51:47;27.70;99.90
15959;DHT22;8078;47.822;9.402;2023-06-10T14:54:15;26.80;1.00
15959;DHT22;8078;47.822;9.402;2023-06-10T14:56:40;26.50;1.00
15959;DHT22;8078;47.822;9.402;2023-06-10T14:59:06;25.90;1.00
15959;DHT22;8078;47.822;9.402;2023-06-10T15:01:32;26.20;1.00
15959;DHT22;8078;47.822;9.402;2023-06-10T15:03:57;26.70;1.00
15959;DHT22;8078;47.822;9.402;2023-06-10T15:06:23;27.80;1.00
15959;DHT22;8078;47.822;9.402;2023-06-10T15:08:48;29.00;1.00
15959;DHT22;8078;47.822;9.402;2023-06-10T15:11:14;29.80;1.00
15959;DHT22;8078;47.822;9.402;2023-06-10T15:13:40;29.80;1.00
15959;DHT22;8078;47.822;9.402;2023-06-10T15:16:06;29.70;1.00
15959;DHT22;8078;47.822;9.402;2023-06-10T15:18:32;30.00;1.00
15959;DHT22;8078;47.822;9.402;2023-06-10T15:20:57;30.30;1.00
15959;DHT22;8078;47.822;9.402;2023-06-10T15:23:23;29.80;1.00
15959;DHT22;8078;47.822;9.402;2023-06-10T15:25:48;29.80;1.00
15959;DHT22;8078;47.822;9.402;2023-06-10T15:28:14;30.00;1.00
15959;DHT22;8078;47.822;9.402;2023-06-10T15:30:40;30.10;1.00
15959;DHT22;8078;47.822;9.402;2023-06-10T15:33:05;30.10;1.00
15959;DHT22;8078;47.822;9.402;2023-06-10T15:35:32;30.40;1.00
15959;DHT22;8078;47.822;9.402;2023-06-10T15:37:57;30.30;1.00
15959;DHT22;8078;47.822;9.402;2023-06-10T15:42:49;30.80;1.00
15959;DHT22;8078;47.822;9.402;2023-06-10T15:45:15;31.00;1.00
15959;DHT22;8078;47.822;9.402;2023-06-10T15:47:40;30.60;1.00
15959;DHT22;8078;47.822;9.402;2023-06-10T15:50:09;29.40;1.00
15959;DHT22;8078;47.822;9.402;2023-06-10T15:52:35;29.40;1.00
15959;DHT22;8078;47.822;9.402;2023-06-10T15:55:00;30.00;1.00
15959;DHT22;8078;47.822;9.402;2023-06-10T15:57:27;30.10;1.00
15959;DHT22;8078;47.822;9.402;2023-06-10T15:59:52;29.10;1.00
15959;DHT22;8078;47.822;9.402;2023-06-10T16:02:18;27.80;1.00
15959;DHT22;8078;47.822;9.402;2023-06-10T16:04:43;26.80;1.00
15959;DHT22;8078;47.822;9.402;2023-06-10T16:07:09;25.90;1.00
15959;DHT22;8078;47.822;9.402;2023-06-10T16:09:34;25.50;1.00
15959;DHT22;8078;47.822;9.402;2023-06-10T16:12:00;25.20;1.00